»·PEaware :: UPS130 KPDX-KSFO

UPS130 :: KPDX-KSFO

FLIGHT INFORMATION

Flight Status: Arrived
Operator:
United Parcel Service
More flights by this operator :: More flights under this callsign
Pilot: David J. (24489)
Aircraft: BOEING 747-400 (WINGLETS)
(B744)
More flights by this aircraft type
Origin: KPDX Portland Intl
United States
Destination: KSFO San Francisco Intl
United States
More flights between these airports :: More routes between these airports
Route: +MINNE5 EASON Q1 ETCHY MLBEC BDEGA3
File this flight plan on PilotEdge
Remarks: RMK / SIMBRIEF
Altitude:
(Current/Filed)
33,000ft
Speed:
(Current/Filed)
479kts
Departed: 05-Jan-20 07:15 PM
Arrived: 05-Jan-20 08:31 PM
Distance/Time
Traveled:
477nm/1:16
Distance/Time
To Go:
Arrived

Flight Plot

Page will automatically refresh every two minutes.


Map Options




Map Legend


Flown Route
Filed Route
Departure Airport
Arrival Airport
Navaid (VOR, NDB)
Fix

Horizontal Profiles

Position Reports

Time Latitude Longitude Heading Altitude Ground
Speed
05-Jan-20 18:54 45.582001 -122.611516 80 43ft 0kts
05-Jan-20 18:55 45.582001 -122.611516 80 43ft 0kts
05-Jan-20 18:56 45.582001 -122.611516 80 43ft 0kts
05-Jan-20 18:57 45.582001 -122.611516 80 43ft 0kts
05-Jan-20 18:58 45.582001 -122.611516 80 43ft 0kts
05-Jan-20 18:59 45.582001 -122.611516 80 43ft 0kts
05-Jan-20 19:00 45.582001 -122.611516 80 43ft 0kts
05-Jan-20 19:01 45.582001 -122.611516 80 43ft 0kts
05-Jan-20 19:02 45.582001 -122.611516 80 43ft 0kts
05-Jan-20 19:03 45.582001 -122.611516 80 43ft 0kts
05-Jan-20 19:04 45.582001 -122.611514 80 43ft 0kts
05-Jan-20 19:05 45.583306 -122.610853 25 43ft 20kts
05-Jan-20 19:06 45.585041 -122.609970 332 43ft 4kts
05-Jan-20 19:07 45.588064 -122.607169 339 43ft 11kts
05-Jan-20 19:08 45.589614 -122.610726 294 43ft 15kts
05-Jan-20 19:09 45.590854 -122.616875 303 43ft 4kts
05-Jan-20 19:10 45.593028 -122.622145 307 43ft 5kts
05-Jan-20 19:11 45.593592 -122.622346 17 43ft 15kts
05-Jan-20 19:12 45.594221 -122.621857 30 43ft 0kts
05-Jan-20 19:13 45.594222 -122.621857 30 43ft 0kts
05-Jan-20 19:14 45.592932 -122.615628 119 43ft 94kts
05-Jan-20 19:15 45.574094 -122.547281 97 2537ft 226kts
05-Jan-20 19:16 45.562517 -122.443088 111 4882ft 288kts
05-Jan-20 19:17 45.528166 -122.338286 150 8124ft 294kts
05-Jan-20 19:18 45.451512 -122.314337 202 11170ft 280kts
05-Jan-20 19:19 45.403643 -122.396527 250 12989ft 310kts
05-Jan-20 19:20 45.364806 -122.523317 251 14795ft 370kts
05-Jan-20 19:21 45.322564 -122.658501 252 16437ft 382kts
05-Jan-20 19:22 45.277593 -122.797734 253 19586ft 394kts
05-Jan-20 19:23 45.227636 -122.940042 239 22218ft 429kts
05-Jan-20 19:24 45.114647 -123.025587 210 24671ft 493kts
05-Jan-20 19:25 44.982247 -123.089281 210 26611ft 510kts
05-Jan-20 19:26 44.847575 -123.156550 211 28655ft 513kts
05-Jan-20 19:27 44.713552 -123.223556 212 30658ft 511kts
05-Jan-20 19:28 44.578891 -123.290042 212 32256ft 513kts
05-Jan-20 19:29 44.435445 -123.327609 191 33608ft 546kts
05-Jan-20 19:30 44.281498 -123.320606 188 33620ft 559kts
05-Jan-20 19:31 44.126052 -123.313986 188 33628ft 558kts
05-Jan-20 19:32 43.971048 -123.307786 188 33629ft 558kts
05-Jan-20 19:33 43.815299 -123.301618 187 33633ft 560kts
05-Jan-20 19:34 43.659516 -123.295497 187 33640ft 559kts
05-Jan-20 19:35 43.504046 -123.289423 187 33649ft 559kts
05-Jan-20 19:36 43.348562 -123.283376 187 33658ft 559kts
05-Jan-20 19:37 43.193520 -123.277379 187 33659ft 557kts
05-Jan-20 19:38 43.038823 -123.271427 186 33649ft 556kts
05-Jan-20 19:39 42.884444 -123.265512 186 33623ft 554kts
05-Jan-20 19:40 42.730609 -123.259634 186 33596ft 553kts
05-Jan-20 19:41 42.576822 -123.253813 186 33584ft 551kts
05-Jan-20 19:42 42.423644 -123.248076 186 33600ft 550kts
05-Jan-20 19:43 42.270997 -123.242461 186 33621ft 549kts
05-Jan-20 19:44 42.118182 -123.236851 185 33628ft 548kts
05-Jan-20 19:45 41.965684 -123.231275 185 33633ft 547kts
05-Jan-20 19:46 41.814546 -123.225747 185 33633ft 543kts
05-Jan-20 19:47 41.663830 -123.220300 185 33607ft 543kts
05-Jan-20 19:48 41.513179 -123.215004 185 33648ft 541kts
05-Jan-20 19:49 41.362498 -123.209809 185 33650ft 541kts
05-Jan-20 19:50 41.212052 -123.205727 185 33637ft 538kts
05-Jan-20 19:51 41.062347 -123.201981 185 33634ft 537kts
05-Jan-20 19:52 40.913280 -123.198915 184 33636ft 536kts
05-Jan-20 19:53 40.764130 -123.194524 185 33635ft 535kts
05-Jan-20 19:54 40.616039 -123.190777 185 33638ft 532kts
05-Jan-20 19:55 40.467702 -123.187086 184 33639ft 530kts
05-Jan-20 19:56 40.321189 -123.183460 184 33643ft 529kts
05-Jan-20 19:57 40.173917 -123.179823 184 33644ft 528kts
05-Jan-20 19:58 40.027516 -123.176238 184 33651ft 527kts
05-Jan-20 19:59 39.881887 -123.171173 183 33650ft 520kts
05-Jan-20 20:00 39.736988 -123.164315 183 33645ft 521kts
05-Jan-20 20:01 39.592166 -123.157630 183 33643ft 520kts
05-Jan-20 20:02 39.447412 -123.150965 183 33645ft 519kts
05-Jan-20 20:03 39.303562 -123.144371 183 33647ft 518kts
05-Jan-20 20:04 39.161420 -123.137910 184 33639ft 501kts
05-Jan-20 20:05 39.029047 -123.085265 154 33364ft 502kts
05-Jan-20 20:06 38.913203 -122.990124 151 31375ft 488kts
05-Jan-20 20:07 38.789630 -122.932308 171 29234ft 466kts
05-Jan-20 20:09 38.664374 -122.896644 171 27182ft 457kts
05-Jan-20 20:10 38.541858 -122.860568 170 25419ft 440kts
05-Jan-20 20:11 38.423232 -122.825601 170 23359ft 435kts
05-Jan-20 20:12 38.306421 -122.791415 170 21448ft 426kts
05-Jan-20 20:13 38.192034 -122.757965 170 19528ft 418kts
05-Jan-20 20:14 38.079450 -122.725252 170 17450ft 410kts
05-Jan-20 20:15 37.973230 -122.694542 170 15662ft 374kts
05-Jan-20 20:16 37.877810 -122.650909 146 14329ft 355kts
05-Jan-20 20:17 37.804265 -122.571558 139 13362ft 321kts
05-Jan-20 20:18 37.740885 -122.505338 139 12527ft 282kts
05-Jan-20 20:19 37.694916 -122.429411 113 11135ft 269kts
05-Jan-20 20:20 37.661408 -122.347198 113 9880ft 258kts
05-Jan-20 20:21 37.625619 -122.270407 118 8657ft 249kts
05-Jan-20 20:22 37.593220 -122.191340 113 6695ft 263kts
05-Jan-20 20:23 37.563624 -122.115638 113 6051ft 200kts
05-Jan-20 20:24 37.528865 -122.070505 184 3967ft 199kts
05-Jan-20 20:25 37.517900 -122.125424 292 3066ft 181kts
05-Jan-20 20:26 37.539476 -122.180930 301 3002ft 175kts
05-Jan-20 20:27 37.561529 -122.233342 300 2179ft 164kts
05-Jan-20 20:28 37.582873 -122.284131 298 1293ft 164kts
05-Jan-20 20:28 37.599891 -122.323671 296 491ft 143kts
05-Jan-20 20:30 37.619464 -122.371705 298 25ft 44kts
05-Jan-20 20:30 37.622240 -122.375772 49 25ft 0kts
05-Jan-20 20:31 37.623783 -122.377871 300 25ft 29kts
05-Jan-20 20:33 37.627854 -122.387586 301 25ft 17kts
05-Jan-20 20:33 37.630606 -122.392485 338 25ft 15kts
05-Jan-20 20:34 37.633329 -122.391509 15 25ft 9kts
05-Jan-20 20:36 37.636829 -122.389321 319 25ft 16kts
05-Jan-20 20:36 37.638389 -122.389489 68 25ft 0kts

Navigation Log

Ident Type
Flight plan parsing failed, navigation log unavailable